Woodsville, New Hampshire
Current Conditions -  °F | °C
As of 12:51 AM on Friday 31 Oct 2014 (Local Time) from KMPV Reporting Station
Overcast Overcast  
Wind Chill: 39°   Ceiling: 3900
Heat Index: 39°   Visibility: 10mi
Dew Point: 33°   Wind: 3mph
Humidity: 79%   Direction: 260°W
Pressure: 30.03"   Gusts: NA
Location:  44.15°N, 72.04°W
Report Text: KMPV 310451Z AUTO 26003KT 10SM OVC039 04/01 A3003 RMK AO2 SLP178 T00390006 400780033 $
Loading
Personal Weather Stations






























Interactive Weather Map
Tropical Storm Tracking
New forecast layout! Learn more

10-Day Weather Forecast

Advertisements
Track Severe Weather on mobile